createdAt,value
2018-04-19T00:04:26.931Z,0.00
2018-04-19T00:05:25.728Z,0.00
2018-04-19T00:06:25.948Z,0.00
2018-04-19T00:07:26.153Z,0.00
2018-04-19T00:08:26.366Z,0.00
2018-04-19T00:09:26.589Z,0.00
2018-04-19T00:10:26.800Z,0.00
2018-04-19T00:11:27.023Z,0.00
2018-04-19T00:12:28.893Z,0.00
2018-04-19T00:13:27.378Z,0.00
2018-04-19T00:14:27.588Z,0.00
2018-04-19T00:15:27.826Z,0.00
2018-04-19T00:16:28.033Z,0.00
2018-04-19T00:17:28.240Z,0.00
2018-04-19T00:18:28.461Z,0.00
2018-04-19T00:19:28.672Z,0.00
2018-04-19T00:20:28.901Z,0.00
2018-04-19T00:21:29.112Z,0.00
2018-04-19T00:22:29.324Z,0.00
2018-04-19T00:23:31.405Z,0.00
2018-04-19T00:24:29.737Z,0.00
2018-04-19T00:25:32.900Z,0.00
2018-04-19T00:26:30.118Z,0.00
2018-04-19T00:27:31.896Z,0.00
2018-04-19T00:28:30.478Z,0.00
2018-04-19T00:29:30.697Z,0.00
2018-04-19T00:30:32.931Z,0.00
2018-04-19T00:31:31.123Z,0.00
2018-04-19T00:32:31.330Z,0.00
2018-04-19T00:33:31.551Z,0.00
2018-04-19T00:34:33.448Z,0.00
2018-04-19T00:35:31.979Z,0.00
2018-04-19T00:36:33.897Z,0.00
2018-04-19T00:37:32.350Z,0.00
2018-04-19T00:38:32.591Z,0.00
2018-04-19T00:39:32.797Z,0.00
2018-04-19T00:40:32.981Z,0.00
2018-04-19T00:41:33.192Z,0.00
2018-04-19T00:42:33.423Z,0.00
2018-04-19T00:43:33.623Z,0.00
2018-04-19T00:44:35.405Z,0.00
2018-04-19T00:45:33.994Z,0.00
2018-04-19T00:46:34.214Z,0.00
2018-04-19T00:47:34.431Z,0.00
2018-04-19T00:48:34.675Z,0.00
2018-04-19T00:49:34.871Z,0.00
2018-04-19T00:50:36.896Z,0.00
2018-04-19T00:51:36.893Z,0.00
2018-04-19T00:52:35.353Z,0.00
2018-04-19T00:53:35.577Z,0.00
2018-04-19T00:54:35.794Z,0.00
2018-04-19T00:55:37.930Z,0.00
2018-04-19T00:56:36.245Z,0.00
2018-04-19T00:57:36.497Z,0.00
2018-04-19T00:58:36.681Z,0.00
2018-04-19T00:59:36.895Z,0.00
2018-04-19T01:00:41.728Z,0.00
2018-04-19T01:01:37.328Z,0.00
2018-04-19T01:02:37.540Z,0.00
2018-04-19T01:03:39.402Z,0.00
2018-04-19T01:04:37.987Z,0.00
2018-04-19T01:05:38.192Z,0.00
2018-04-19T01:06:38.420Z,0.00
2018-04-19T01:07:38.636Z,0.00
2018-04-19T01:08:40.414Z,0.00
2018-04-19T01:09:39.009Z,0.00
2018-04-19T01:10:39.226Z,0.00
2018-04-19T01:11:39.439Z,0.00
2018-04-19T01:12:39.659Z,0.00
2018-04-19T01:13:39.868Z,0.00
2018-04-19T01:14:40.066Z,0.00
2018-04-19T01:15:40.289Z,0.00
2018-04-19T01:16:40.498Z,0.00
2018-04-19T01:17:40.714Z,0.00
2018-04-19T01:18:42.892Z,0.00
2018-04-19T01:19:41.131Z,0.00
2018-04-19T01:20:43.905Z,0.00
2018-04-19T01:21:41.382Z,0.00
2018-04-19T01:22:41.594Z,0.00
2018-04-19T01:23:41.805Z,0.00
2018-04-19T01:24:42.025Z,0.00
2018-04-19T01:25:42.229Z,0.00
2018-04-19T01:26:42.451Z,0.00
2018-04-19T01:27:42.640Z,0.00
2018-04-19T01:28:42.863Z,0.00
2018-04-19T01:29:44.912Z,0.00
2018-04-19T01:30:44.897Z,0.00
2018-04-19T01:31:44.898Z,0.00
2018-04-19T01:32:43.484Z,0.00
2018-04-19T01:33:45.395Z,0.00
2018-04-19T01:34:43.863Z,0.00
2018-04-19T01:35:44.072Z,0.00
2018-04-19T01:36:44.300Z,0.00
2018-04-19T01:37:44.517Z,0.00
2018-04-19T01:38:44.721Z,0.00
2018-04-19T01:39:44.936Z,0.00
2018-04-19T01:40:45.171Z,0.00
2018-04-19T01:41:46.896Z,0.00
2018-04-19T01:42:45.489Z,0.00
2018-04-19T01:43:45.696Z,0.00
2018-04-19T01:44:45.908Z,0.00
2018-04-19T01:45:46.147Z,0.00
2018-04-19T01:46:46.355Z,0.00
2018-04-19T01:47:46.571Z,0.00
2018-04-19T01:48:46.787Z,0.00
2018-04-19T01:49:47.004Z,0.00
2018-04-19T01:50:47.216Z,0.00
2018-04-19T01:51:47.429Z,0.00
2018-04-19T01:52:49.405Z,0.00
2018-04-19T01:53:47.868Z,0.00
2018-04-19T01:54:48.084Z,0.00
2018-04-19T01:55:48.299Z,0.00
2018-04-19T01:56:48.512Z,0.00
2018-04-19T01:57:48.716Z,0.00
2018-04-19T01:58:48.933Z,0.00
2018-04-19T01:59:49.145Z,0.00
2018-04-19T02:00:49.354Z,0.00
2018-04-19T02:01:49.563Z,0.00
2018-04-19T02:02:49.777Z,0.00
2018-04-19T02:03:49.986Z,0.00
2018-04-19T02:04:51.910Z,0.00
2018-04-19T02:05:51.895Z,0.00
2018-04-19T02:06:53.439Z,0.00
2018-04-19T02:07:50.777Z,0.00
2018-04-19T02:08:50.975Z,0.00
2018-04-19T02:09:51.205Z,0.00
2018-04-19T02:10:53.409Z,0.00
2018-04-19T02:11:51.602Z,0.00
2018-04-19T02:12:51.819Z,0.00
2018-04-19T02:13:52.029Z,0.00
2018-04-19T02:14:52.267Z,0.00
2018-04-19T02:15:53.476Z,0.00
2018-04-19T02:16:54.396Z,0.00
2018-04-19T02:17:52.861Z,0.00
2018-04-19T02:18:54.911Z,0.00
2018-04-19T02:19:53.225Z,0.00
2018-04-19T02:20:55.401Z,0.00
2018-04-19T02:21:55.398Z,0.00
2018-04-19T02:22:53.751Z,0.00
2018-04-19T02:23:55.902Z,0.00
2018-04-19T02:24:54.117Z,0.00
2018-04-19T02:25:54.348Z,0.00
2018-04-19T02:26:57.421Z,0.00
2018-04-19T02:27:56.398Z,0.00
2018-04-19T02:28:56.896Z,0.00
2018-04-19T02:29:55.127Z,0.00
2018-04-19T02:30:55.374Z,0.00
2018-04-19T02:31:55.567Z,0.00
2018-04-19T02:32:55.788Z,0.00
2018-04-19T02:33:55.994Z,0.00
2018-04-19T02:34:59.912Z,0.00
2018-04-19T02:35:57.897Z,0.00
2018-04-19T02:36:56.612Z,0.00
2018-04-19T02:37:56.824Z,0.00
2018-04-19T02:38:57.037Z,0.00
2018-04-19T02:39:57.256Z,0.00
2018-04-19T02:40:57.460Z,0.00
2018-04-19T02:41:57.719Z,0.00
2018-04-19T02:42:57.852Z,0.00
2018-04-19T02:43:57.974Z,0.00
2018-04-19T02:44:58.198Z,0.00
2018-04-19T02:45:58.427Z,0.00
2018-04-19T02:46:58.628Z,0.00
2018-04-19T02:47:58.844Z,0.00
2018-04-19T02:48:59.106Z,0.00
2018-04-19T02:49:59.303Z,0.00
2018-04-19T02:50:59.423Z,0.00
2018-04-19T02:51:59.523Z,0.00
2018-04-19T02:52:59.731Z,0.00
2018-04-19T02:53:59.951Z,0.00
2018-04-19T02:55:00.163Z,0.00
2018-04-19T02:56:00.384Z,0.00
2018-04-19T02:57:00.604Z,0.00
2018-04-19T02:58:00.817Z,0.00
2018-04-19T02:59:03.910Z,0.00
2018-04-19T03:00:01.251Z,0.00
2018-04-19T03:01:01.469Z,0.00
2018-04-19T03:02:01.687Z,0.00
2018-04-19T03:03:01.903Z,0.00
2018-04-19T03:04:02.112Z,0.00
2018-04-19T03:05:02.331Z,0.00
2018-04-19T03:06:04.429Z,0.00
2018-04-19T03:07:02.740Z,0.00
2018-04-19T03:08:02.959Z,0.00
2018-04-19T03:09:04.899Z,0.00
2018-04-19T03:10:03.366Z,0.00
2018-04-19T03:11:07.418Z,0.00
2018-04-19T03:12:03.737Z,0.00
2018-04-19T03:13:05.911Z,0.00
2018-04-19T03:14:04.112Z,0.00
2018-04-19T03:15:04.325Z,0.00
2018-04-19T03:16:04.537Z,0.00
2018-04-19T03:17:04.748Z,0.00
2018-04-19T03:18:04.956Z,0.00
2018-04-19T03:19:05.171Z,0.00
2018-04-19T03:20:05.383Z,0.00
2018-04-19T03:21:05.591Z,0.00
2018-04-19T03:22:05.805Z,0.00
2018-04-19T03:23:09.900Z,0.00
2018-04-19T03:24:06.232Z,0.00
2018-04-19T03:25:08.397Z,0.00
2018-04-19T03:26:06.616Z,0.00
2018-04-19T03:27:06.822Z,0.00
2018-04-19T03:28:07.037Z,0.00
2018-04-19T03:29:07.251Z,0.00
2018-04-19T03:30:07.466Z,0.00
2018-04-19T03:31:07.679Z,0.00
2018-04-19T03:32:07.894Z,0.00
2018-04-19T03:33:08.087Z,0.00
2018-04-19T03:34:08.311Z,0.00
2018-04-19T03:35:08.517Z,0.00
2018-04-19T03:36:08.733Z,0.00
2018-04-19T03:37:08.943Z,0.00
2018-04-19T03:38:09.145Z,0.00
2018-04-19T03:39:09.359Z,0.00
2018-04-19T03:40:09.570Z,0.00
2018-04-19T03:41:09.788Z,0.00
2018-04-19T03:42:09.983Z,0.00
2018-04-19T03:43:10.200Z,4.00
2018-04-19T03:44:10.411Z,4.00
2018-04-19T03:45:10.635Z,0.00
2018-04-19T03:46:10.867Z,0.00
2018-04-19T03:47:11.085Z,4.00
2018-04-19T03:48:11.307Z,4.00
2018-04-19T03:49:11.521Z,4.00
2018-04-19T03:50:11.727Z,4.00
2018-04-19T03:51:11.943Z,4.00
2018-04-19T03:52:13.901Z,4.00
2018-04-19T03:53:13.908Z,4.00
2018-04-19T03:54:12.527Z,8.00
2018-04-19T03:55:12.729Z,8.00
2018-04-19T03:56:14.899Z,12.00
2018-04-19T03:57:13.117Z,12.00
2018-04-19T03:58:13.327Z,16.00
2018-04-19T03:59:13.541Z,20.00
2018-04-19T04:00:13.745Z,24.00
2018-04-19T04:01:14.016Z,28.00
2018-04-19T04:02:14.224Z,32.00
2018-04-19T04:03:15.897Z,40.00
2018-04-19T04:04:14.499Z,44.00
2018-04-19T04:05:14.698Z,48.00
2018-04-19T04:06:14.908Z,60.00
2018-04-19T04:07:15.132Z,68.00
2018-04-19T04:08:15.341Z,76.00
2018-04-19T04:09:17.401Z,88.00
2018-04-19T04:10:17.402Z,100.00
2018-04-19T04:11:15.865Z,116.00
2018-04-19T04:12:16.069Z,132.00
2018-04-19T04:13:16.293Z,144.00
2018-04-19T04:14:16.496Z,164.00
2018-04-19T04:15:16.716Z,180.00
2018-04-19T04:16:16.930Z,200.00
2018-04-19T04:17:17.139Z,224.00
2018-04-19T04:18:17.349Z,244.00
2018-04-19T04:19:17.572Z,272.00
2018-04-19T04:20:17.793Z,300.00
2018-04-19T04:21:18.000Z,332.00
2018-04-19T04:22:18.209Z,364.00
2018-04-19T04:23:18.422Z,400.00
2018-04-19T04:24:18.686Z,432.00
2018-04-19T04:25:18.890Z,472.00
2018-04-19T04:26:19.105Z,504.00
2018-04-19T04:27:19.311Z,544.00
2018-04-19T04:28:21.416Z,580.00
2018-04-19T04:29:19.750Z,620.00
2018-04-19T04:30:19.958Z,664.00
2018-04-19T04:31:21.936Z,708.00
2018-04-19T04:32:20.370Z,752.00
2018-04-19T04:33:20.576Z,796.00
2018-04-19T04:34:20.794Z,844.00
2018-04-19T04:35:22.900Z,892.00
2018-04-19T04:36:21.228Z,944.00
2018-04-19T04:37:21.453Z,992.00
2018-04-19T04:38:21.664Z,1044.00
2018-04-19T04:39:21.871Z,1096.00
2018-04-19T04:40:22.085Z,1148.00
2018-04-19T04:41:23.905Z,1192.00
2018-04-19T04:42:22.490Z,1232.00
2018-04-19T04:43:24.397Z,1284.00
2018-04-19T04:44:22.859Z,1336.00
2018-04-19T04:45:23.087Z,1400.00
2018-04-19T04:46:23.194Z,1472.00
2018-04-19T04:47:23.412Z,1556.00
2018-04-19T04:48:23.597Z,1652.00
2018-04-19T04:49:23.810Z,1728.00
2018-04-19T04:50:24.031Z,1788.00
2018-04-19T04:51:24.244Z,1852.00
2018-04-19T04:52:24.457Z,1912.00
2018-04-19T04:53:24.678Z,1976.00
2018-04-19T04:54:24.889Z,2040.00
2018-04-19T04:55:25.096Z,2104.00
2018-04-19T04:56:25.344Z,2168.00
2018-04-19T04:57:25.541Z,2232.00
2018-04-19T04:58:25.738Z,2304.00
2018-04-19T04:59:25.989Z,2384.00
2018-04-19T05:00:27.903Z,2456.00
2018-04-19T05:01:26.244Z,2520.00
2018-04-19T05:02:26.463Z,2584.00
2018-04-19T05:03:28.421Z,2644.00
2018-04-19T05:04:26.882Z,2704.00
2018-04-19T05:05:27.103Z,2760.00
2018-04-19T05:06:27.317Z,2812.00
2018-04-19T05:07:29.404Z,2820.00
2018-04-19T05:08:29.408Z,2816.00
2018-04-19T05:09:27.897Z,2880.00
2018-04-19T05:10:28.105Z,3012.00
2018-04-19T05:11:28.327Z,3136.00
2018-04-19T05:12:28.535Z,3196.00
2018-04-19T05:13:28.752Z,3264.00
2018-04-19T05:14:28.974Z,3452.00
2018-04-19T05:15:29.179Z,3868.00
2018-04-19T05:16:29.383Z,4300.00
2018-04-19T05:17:29.585Z,4232.00
2018-04-19T05:18:31.400Z,4256.00
2018-04-19T05:19:29.982Z,4624.00
2018-04-19T05:20:32.904Z,5304.00
2018-04-19T05:21:31.914Z,5880.00
2018-04-19T05:22:30.507Z,5896.00
2018-04-19T05:23:33.405Z,5868.00
2018-04-19T05:24:30.889Z,6028.00
2018-04-19T05:25:34.899Z,6700.00
2018-04-19T05:26:31.245Z,7480.00
2018-04-19T05:27:31.463Z,8704.00
2018-04-19T05:28:31.676Z,9844.00
2018-04-19T05:29:31.888Z,10072.00
2018-04-19T05:30:32.119Z,10500.00
2018-04-19T05:31:32.319Z,10760.00
2018-04-19T05:32:32.547Z,11032.00
2018-04-19T05:33:35.456Z,11712.00
2018-04-19T05:34:32.889Z,12676.00
2018-04-19T05:35:33.107Z,13284.00
2018-04-19T05:36:33.321Z,13256.00
2018-04-19T05:37:33.538Z,12888.00
2018-04-19T05:38:33.748Z,12708.00
2018-04-19T05:39:33.964Z,12932.00
2018-04-19T05:40:34.183Z,13604.00
2018-04-19T05:41:34.400Z,14432.00
2018-04-19T05:42:36.406Z,14944.00
2018-04-19T05:43:34.755Z,15328.00
2018-04-19T05:44:34.961Z,15840.00
2018-04-19T05:45:35.198Z,16512.00
2018-04-19T05:46:35.312Z,17216.00
2018-04-19T05:47:35.521Z,17600.00
2018-04-19T05:48:35.738Z,17088.00
2018-04-19T05:49:35.958Z,16576.00
2018-04-19T05:50:36.163Z,16288.00
2018-04-19T05:51:36.380Z,16608.00
2018-04-19T05:52:36.609Z,17568.00
2018-04-19T05:53:36.851Z,18944.00
2018-04-19T05:54:37.058Z,20064.00
2018-04-19T05:55:37.264Z,20576.00
2018-04-19T05:56:37.474Z,20480.00
2018-04-19T05:57:41.397Z,20320.00
2018-04-19T05:58:40.405Z,20704.00
2018-04-19T05:59:41.896Z,21952.00
2018-04-19T06:00:38.121Z,23232.00
2018-04-19T06:01:39.899Z,23904.00
2018-04-19T06:02:38.506Z,23584.00
2018-04-19T06:03:38.728Z,22848.00
2018-04-19T06:04:38.940Z,22624.00
2018-04-19T06:05:39.160Z,23072.00
2018-04-19T06:06:39.393Z,24320.00
2018-04-19T06:07:39.599Z,25184.00
2018-04-19T06:08:41.469Z,25248.00
2018-04-19T06:09:39.994Z,24672.00
2018-04-19T06:10:40.216Z,24256.00
2018-04-19T06:11:44.421Z,24576.00
2018-04-19T06:12:40.630Z,25536.00
2018-04-19T06:13:42.402Z,26496.00
2018-04-19T06:14:40.987Z,26816.00
2018-04-19T06:15:41.244Z,26752.00
2018-04-19T06:16:41.455Z,26592.00
2018-04-19T06:17:45.126Z,26432.00
2018-04-19T06:18:42.013Z,26432.00
2018-04-19T06:19:41.979Z,26880.00
2018-04-19T06:20:43.346Z,27424.00
2018-04-19T06:21:45.993Z,27648.00
2018-04-19T06:23:50.443Z,28224.00
2018-04-19T06:24:42.958Z,28576.00
2018-04-19T06:25:44.906Z,29184.00
2018-04-19T06:26:43.261Z,29888.00
2018-04-19T06:27:43.520Z,30496.00
2018-04-19T06:28:43.701Z,30240.00
2018-04-19T06:29:43.926Z,30432.00
2018-04-19T06:30:44.410Z,30784.00
2018-04-19T06:31:46.911Z,31904.00
2018-04-19T06:32:44.602Z,32928.00
2018-04-19T06:33:44.757Z,33472.00
2018-04-19T06:34:44.968Z,32928.00
2018-04-19T06:35:45.201Z,32096.00
2018-04-19T06:36:46.925Z,32352.00
2018-04-19T06:37:45.629Z,33536.00
2018-04-19T06:38:45.841Z,35680.00
2018-04-19T06:39:46.070Z,36896.00
2018-04-19T06:40:47.914Z,36256.00
2018-04-19T06:41:46.501Z,34560.00
2018-04-19T06:42:46.731Z,32672.00
2018-04-19T06:43:46.970Z,32736.00
2018-04-19T06:44:47.100Z,33376.00
2018-04-19T06:45:47.227Z,34528.00
2018-04-19T06:46:49.399Z,34912.00
2018-04-19T06:47:47.629Z,35872.00
2018-04-19T06:48:49.438Z,36000.00
2018-04-19T06:49:49.923Z,35968.00
2018-04-19T06:50:48.179Z,36256.00
2018-04-19T06:51:48.285Z,37536.00
2018-04-19T06:52:50.402Z,39360.00
2018-04-19T06:53:48.793Z,40480.00
2018-04-19T06:54:48.909Z,40512.00
2018-04-19T06:55:49.329Z,40832.00
2018-04-19T06:56:49.325Z,41216.00
2018-04-19T06:57:51.407Z,42432.00
2018-04-19T06:58:49.802Z,43840.00
2018-04-19T06:59:51.406Z,43264.00
2018-04-19T07:00:51.539Z,41504.00
2018-04-19T07:01:50.273Z,40096.00
2018-04-19T07:02:50.494Z,40032.00
2018-04-19T07:03:56.738Z,41056.00
2018-04-19T07:04:52.919Z,43552.00
2018-04-19T07:05:51.131Z,46144.00
2018-04-19T07:06:51.357Z,48256.00
2018-04-19T07:07:53.410Z,48160.00
2018-04-19T07:08:53.415Z,46816.00
2018-04-19T07:09:51.889Z,44896.00
2018-04-19T07:10:53.929Z,42240.00
2018-04-19T07:11:53.945Z,40416.00
2018-04-19T07:12:52.412Z,40544.00
2018-04-19T07:13:52.530Z,42016.00
2018-04-19T07:14:52.787Z,43840.00
2018-04-19T07:15:56.928Z,45504.00
2018-04-19T07:16:53.156Z,47872.00
2018-04-19T07:18:00.945Z,48384.00
2018-04-19T07:18:55.446Z,47552.00
2018-04-19T07:20:14.690Z,45536.00
2018-04-19T07:20:55.434Z,42944.00
2018-04-19T07:21:54.045Z,39232.00
2018-04-19T07:22:56.885Z,41888.00
2018-04-19T07:23:57.403Z,45216.00
2018-04-19T07:24:56.468Z,48320.00
2018-04-19T07:26:02.961Z,43936.00
2018-04-19T07:26:58.911Z,48928.00
2018-04-19T07:27:58.010Z,46592.00
2018-04-19T07:28:55.614Z,44480.00
2018-04-19T07:30:01.440Z,43232.00
2018-04-19T07:30:57.916Z,44352.00
2018-04-19T07:31:56.321Z,46976.00
2018-04-19T07:32:56.432Z,50304.00
2018-04-19T07:33:56.657Z,51616.00
2018-04-19T07:34:58.446Z,50112.00
2018-04-19T07:36:02.953Z,47296.00
2018-04-19T07:36:58.949Z,44000.00
2018-04-19T07:37:57.320Z,43840.00
2018-04-19T07:39:01.388Z,47360.00
2018-04-19T07:40:21.466Z,54240.00
2018-04-19T07:41:01.886Z,60768.00
2018-04-19T07:41:59.928Z,63328.00
2018-04-19T07:42:59.953Z,62080.00
2018-04-19T07:43:58.467Z,57888.00
2018-04-19T07:44:59.567Z,52672.00
2018-04-19T07:45:58.801Z,49664.00
2018-04-19T07:47:00.067Z,49760.00
2018-04-19T07:47:59.185Z,52704.00
2018-04-19T07:48:59.417Z,56992.00
2018-04-19T07:50:02.421Z,60576.00
2018-04-19T07:51:01.409Z,60448.00
2018-04-19T07:52:01.915Z,56544.00
2018-04-19T07:53:01.242Z,51872.00
2018-04-19T07:54:03.413Z,47872.00
2018-04-19T07:55:00.635Z,48064.00
2018-04-19T07:56:01.873Z,50880.00
2018-04-19T07:57:02.904Z,54880.00
2018-04-19T07:58:02.879Z,58240.00
2018-04-19T07:59:03.370Z,60384.00
2018-04-19T08:00:04.420Z,61632.00
2018-04-19T08:01:03.131Z,61408.00
2018-04-19T08:02:05.908Z,61216.00
2018-04-19T08:03:04.186Z,61984.00
2018-04-19T08:04:04.391Z,63360.00
2018-04-19T08:05:04.417Z,64352.00
2018-04-19T08:06:05.027Z,64352.00
2018-04-19T08:07:04.910Z,65376.00
2018-04-19T08:08:03.304Z,66368.00
2018-04-19T08:09:04.908Z,67936.00
2018-04-19T08:10:05.412Z,66880.00
2018-04-19T08:11:05.462Z,64736.00
2018-04-19T08:12:06.939Z,61984.00
2018-04-19T08:13:07.920Z,58144.00
2018-04-19T08:14:12.018Z,57664.00
2018-04-19T08:15:07.420Z,55712.00
2018-04-19T08:16:06.379Z,56704.00
2018-04-19T08:17:05.118Z,59744.00
2018-04-19T08:18:05.354Z,63584.00
2018-04-19T08:19:05.616Z,66720.00
2018-04-19T08:20:06.790Z,68928.00
2018-04-19T08:21:10.975Z,69760.00
2018-04-19T08:22:06.088Z,70848.00
2018-04-19T08:23:07.962Z,72320.00
2018-04-19T08:24:07.484Z,73632.00
2018-04-19T08:25:07.725Z,75584.00
2018-04-19T08:26:06.948Z,76032.00
2018-04-19T08:27:11.314Z,76128.00
2018-04-19T08:28:07.366Z,74432.00
2018-04-19T08:29:08.873Z,71520.00
2018-04-19T08:30:11.422Z,68256.00
2018-04-19T08:31:08.889Z,66432.00
2018-04-19T08:32:09.908Z,66656.00
2018-04-19T08:33:08.489Z,68096.00
2018-04-19T08:34:08.492Z,69568.00
2018-04-19T08:35:08.747Z,70048.00
2018-04-19T08:36:12.957Z,71328.00
2018-04-19T08:37:30.200Z,69888.00
2018-04-19T08:38:10.923Z,67392.00
2018-04-19T08:39:12.465Z,65120.00
2018-04-19T08:40:09.834Z,65216.00
2018-04-19T08:41:13.930Z,66528.00
2018-04-19T08:42:11.291Z,68640.00
2018-04-19T08:43:10.439Z,71840.00
2018-04-19T08:44:26.430Z,73984.00
2018-04-19T08:45:14.424Z,74976.00
2018-04-19T08:46:12.925Z,73632.00
2018-04-19T08:47:12.312Z,70016.00
2018-04-19T08:48:14.387Z,67488.00
2018-04-19T08:49:11.641Z,68832.00
2018-04-19T08:50:13.112Z,72736.00
2018-04-19T08:51:12.961Z,78880.00
2018-04-19T08:52:13.922Z,83552.00
2018-04-19T08:53:12.438Z,84960.00
2018-04-19T08:54:35.874Z,83040.00
2018-04-19T08:55:13.891Z,80896.00
2018-04-19T08:56:15.929Z,79616.00
2018-04-19T08:57:14.978Z,80832.00
2018-04-19T08:58:16.942Z,81888.00
2018-04-19T08:59:15.487Z,82624.00
2018-04-19T09:00:15.451Z,81344.00
2018-04-19T09:01:16.667Z,77376.00
2018-04-19T09:02:15.377Z,72960.00
2018-04-19T09:03:30.550Z,68320.00
2018-04-19T09:04:15.480Z,65248.00
2018-04-19T09:05:16.431Z,65312.00
2018-04-19T09:06:16.379Z,66432.00
2018-04-19T09:07:15.979Z,69824.00
2018-04-19T09:08:16.954Z,73824.00
2018-04-19T09:09:19.491Z,76864.00
2018-04-19T09:10:22.437Z,77088.00
2018-04-19T09:11:18.429Z,75488.00
2018-04-19T09:12:17.054Z,72864.00
2018-04-19T09:13:18.891Z,70144.00
2018-04-19T09:14:17.166Z,68480.00
2018-04-19T09:15:18.471Z,68992.00
2018-04-19T09:16:19.415Z,71296.00
2018-04-19T09:17:20.931Z,74176.00
2018-04-19T09:18:18.954Z,77440.00
2018-04-19T09:19:22.430Z,74336.00
2018-04-19T09:20:24.424Z,69984.00
2018-04-19T09:21:18.004Z,65696.00
2018-04-19T09:22:21.990Z,63648.00
2018-04-19T09:23:18.399Z,64736.00
2018-04-19T09:24:18.651Z,70624.00
2018-04-19T09:25:18.766Z,74752.00
2018-04-19T09:26:20.116Z,76480.00
2018-04-19T09:27:19.290Z,74016.00
2018-04-19T09:28:19.476Z,66208.00
2018-04-19T09:29:21.438Z,61056.00
2018-04-19T09:30:21.435Z,60800.00
2018-04-19T09:31:20.159Z,65696.00
2018-04-19T09:32:23.921Z,71904.00
2018-04-19T09:33:21.520Z,76736.00
2018-04-19T09:34:23.436Z,76768.00
2018-04-19T09:35:21.931Z,69888.00
2018-04-19T09:36:22.067Z,63168.00
2018-04-19T09:37:21.307Z,58752.00
2018-04-19T09:38:21.533Z,60352.00
2018-04-19T09:39:21.808Z,65824.00
2018-04-19T09:40:23.430Z,72480.00
2018-04-19T09:41:23.926Z,77472.00
2018-04-19T09:42:23.449Z,79136.00
2018-04-19T09:43:30.393Z,77728.00
2018-04-19T09:44:22.877Z,73696.00
2018-04-19T09:45:25.885Z,71872.00
2018-04-19T09:46:24.932Z,71968.00
2018-04-19T09:47:24.955Z,72512.00
2018-04-19T09:48:23.599Z,71872.00
2018-04-19T09:49:27.435Z,70016.00
2018-04-19T09:50:24.030Z,69568.00
2018-04-19T09:51:25.935Z,73664.00
2018-04-19T09:52:25.928Z,77632.00
2018-04-19T09:53:26.476Z,80000.00
2018-04-19T09:54:47.428Z,80480.00
2018-04-19T09:55:27.584Z,78944.00
2018-04-19T09:56:26.931Z,76288.00
2018-04-19T09:57:26.445Z,72160.00
2018-04-19T09:58:27.442Z,67840.00
2018-04-19T09:59:33.453Z,64544.00
2018-04-19T10:00:26.185Z,66144.00
2018-04-19T10:01:26.162Z,67904.00
2018-04-19T10:02:26.334Z,71520.00
2018-04-19T10:03:28.457Z,73312.00
2018-04-19T10:04:28.465Z,73088.00
2018-04-19T10:05:27.868Z,73216.00
2018-04-19T10:06:28.926Z,76352.00
2018-04-19T10:07:27.183Z,80768.00
2018-04-19T10:08:27.303Z,83936.00
2018-04-19T10:09:27.560Z,83136.00
2018-04-19T10:10:27.724Z,78624.00
2018-04-19T10:11:31.457Z,72608.00
2018-04-19T10:12:29.937Z,69152.00
2018-04-19T10:13:30.919Z,69280.00
2018-04-19T10:14:30.435Z,70368.00
2018-04-19T10:15:35.021Z,70112.00
2018-04-19T10:16:30.457Z,68224.00
2018-04-19T10:17:30.937Z,67104.00
2018-04-19T10:18:34.109Z,66880.00
2018-04-19T10:19:32.943Z,68096.00
2018-04-19T10:20:33.443Z,69568.00
2018-04-19T10:21:29.836Z,70880.00
2018-04-19T10:22:32.276Z,72512.00
2018-04-19T10:23:32.918Z,75616.00
2018-04-19T10:24:30.412Z,78368.00
2018-04-19T10:25:32.439Z,80896.00
2018-04-19T10:26:32.392Z,82976.00
2018-04-19T10:27:34.983Z,82880.00
2018-04-19T10:28:42.918Z,79744.00
2018-04-19T10:29:32.927Z,74944.00
2018-04-19T10:30:31.549Z,71552.00
2018-04-19T10:31:32.791Z,68416.00
2018-04-19T10:32:31.974Z,67648.00
2018-04-19T10:33:33.929Z,66912.00
2018-04-19T10:34:33.302Z,67872.00
2018-04-19T10:35:33.951Z,68256.00
2018-04-19T10:36:32.652Z,68896.00
2018-04-19T10:37:39.244Z,70496.00
2018-04-19T10:38:36.177Z,71744.00
2018-04-19T10:39:34.921Z,72224.00
2018-04-19T10:40:36.951Z,71744.00
2018-04-19T10:41:36.448Z,73632.00
2018-04-19T10:42:37.420Z,75072.00
2018-04-19T10:43:35.438Z,76608.00
2018-04-19T10:44:35.921Z,76032.00
2018-04-19T10:45:35.968Z,74176.00
2018-04-19T10:46:41.953Z,73024.00
2018-04-19T10:47:36.455Z,70560.00
2018-04-19T10:48:35.222Z,68128.00
2018-04-19T10:49:37.470Z,66016.00
2018-04-19T10:50:35.879Z,65664.00
2018-04-19T10:51:35.250Z,64448.00
2018-04-19T10:52:36.381Z,64032.00
2018-04-19T10:53:35.704Z,63840.00
2018-04-19T10:54:35.831Z,64256.00
2018-04-19T10:55:38.752Z,66336.00
2018-04-19T10:56:36.236Z,68320.00
2018-04-19T10:57:38.436Z,69792.00
2018-04-19T10:58:36.673Z,73056.00
2018-04-19T10:59:38.425Z,75296.00
2018-04-19T11:00:37.160Z,77888.00
2018-04-19T11:01:37.389Z,77632.00
2018-04-19T11:02:37.635Z,75488.00
2018-04-19T11:03:39.426Z,72160.00
2018-04-19T11:04:39.433Z,68128.00
2018-04-19T11:05:38.040Z,66336.00
2018-04-19T11:06:39.233Z,66112.00
2018-04-19T11:07:38.464Z,66880.00
2018-04-19T11:08:41.879Z,68160.00
2018-04-19T11:09:38.880Z,70240.00
2018-04-19T11:10:39.882Z,70912.00
2018-04-19T11:11:40.237Z,71808.00
2018-04-19T11:12:39.462Z,73856.00
2018-04-19T11:14:00.736Z,74432.00
2018-04-19T11:14:39.938Z,75264.00
2018-04-19T11:15:47.935Z,74464.00
2018-04-19T11:16:40.422Z,73088.00
2018-04-19T11:17:40.610Z,72192.00
2018-04-19T11:18:44.460Z,71424.00
2018-04-19T11:19:42.421Z,69376.00
2018-04-19T11:20:42.921Z,67328.00
2018-04-19T11:21:43.984Z,66048.00
2018-04-19T11:22:53.414Z,65504.00
2018-04-19T11:23:45.899Z,64736.00
2018-04-19T11:24:42.062Z,65312.00
2018-04-19T11:25:43.925Z,65344.00
2018-04-19T11:26:44.592Z,65088.00
2018-04-19T11:27:44.424Z,64160.00
2018-04-19T11:28:45.430Z,63520.00
2018-04-19T11:29:44.937Z,61792.00
2018-04-19T11:30:43.198Z,61920.00
2018-04-19T11:31:58.942Z,62944.00
2018-04-19T11:32:46.870Z,64096.00
2018-04-19T11:33:47.412Z,64672.00
2018-04-19T11:34:45.314Z,64704.00
2018-04-19T11:35:46.972Z,62848.00
2018-04-19T11:36:44.460Z,60800.00
2018-04-19T11:37:46.459Z,59296.00
2018-04-19T11:38:47.367Z,59424.00
2018-04-19T11:39:44.916Z,60512.00
2018-04-19T11:40:45.681Z,62368.00
2018-04-19T11:41:46.952Z,63456.00
2018-04-19T11:42:46.578Z,62944.00
2018-04-19T11:45:20.359Z,59552.00
2018-04-19T11:46:21.375Z,58784.00
2018-04-19T11:47:17.847Z,57152.00
2018-04-19T11:48:17.977Z,57216.00
2018-04-19T11:49:18.164Z,58080.00
2018-04-19T11:50:20.866Z,60768.00
2018-04-19T11:51:19.810Z,64320.00
2018-04-19T11:52:26.394Z,65376.00
2018-04-19T11:53:20.017Z,64288.00
2018-04-19T11:54:20.857Z,60320.00
2018-04-19T11:55:21.326Z,55072.00
2018-04-19T11:56:19.548Z,49888.00
2018-04-19T11:57:20.308Z,44960.00
2018-04-19T11:58:21.807Z,42144.00
2018-04-19T11:59:21.305Z,42496.00
2018-04-19T12:00:24.300Z,45440.00
2018-04-19T12:01:20.712Z,50816.00
2018-04-19T12:02:24.850Z,57792.00
2018-04-19T12:03:24.935Z,62304.00
2018-04-19T12:04:21.640Z,63968.00
2018-04-19T12:05:23.349Z,59648.00
2018-04-19T12:06:21.712Z,52160.00
2018-04-19T12:07:26.342Z,44704.00
2018-04-19T12:08:22.268Z,40768.00
2018-04-19T12:09:22.314Z,41056.00
2018-04-19T12:10:22.550Z,44928.00
2018-04-19T12:11:26.407Z,50336.00
2018-04-19T12:12:23.806Z,55904.00
2018-04-19T12:13:24.225Z,57984.00
2018-04-19T12:14:23.548Z,56416.00
2018-04-19T12:15:27.355Z,51072.00
2018-04-19T12:16:31.350Z,44192.00
2018-04-19T12:17:31.854Z,41184.00
2018-04-19T12:18:25.853Z,41088.00
2018-04-19T12:19:24.888Z,43776.00
2018-04-19T12:20:27.332Z,47616.00
2018-04-19T12:21:25.757Z,50336.00
2018-04-19T12:22:26.377Z,53568.00
2018-04-19T12:23:29.263Z,53984.00
2018-04-19T12:24:26.853Z,53792.00